sensor_id;sensor_type;location;lat;lon;timestamp;pressure;altitude;pressure_sealevel;temperature;humidity
62978;BME280;49073;42.352;23.808;2024-03-08T00:00:00;94723.78;;;4.43;100.00
62978;BME280;49073;42.352;23.808;2024-03-08T00:03:09;94718.34;;;4.48;100.00
62978;BME280;49073;42.352;23.808;2024-03-08T00:06:10;94725.16;;;4.49;100.00
62978;BME280;49073;42.352;23.808;2024-03-08T00:09:11;94720.03;;;4.53;100.00
62978;BME280;49073;42.352;23.808;2024-03-08T00:12:12;94722.53;;;4.49;100.00
62978;BME280;49073;42.352;23.808;2024-03-08T00:15:14;94721.28;;;4.55;100.00
62978;BME280;49073;42.352;23.808;2024-03-08T00:18:15;94710.84;;;4.76;100.00
62978;BME280;49073;42.352;23.808;2024-03-08T00:21:16;94711.94;;;4.66;100.00
62978;BME280;49073;42.352;23.808;2024-03-08T00:24:17;94709.47;;;4.53;100.00
62978;BME280;49073;42.352;23.808;2024-03-08T00:27:17;94715.25;;;4.46;100.00
62978;BME280;49073;42.352;23.808;2024-03-08T00:30:22;94712.28;;;4.47;100.00
62978;BME280;49073;42.352;23.808;2024-03-08T00:33:23;94714.78;;;4.44;100.00
62978;BME280;49073;42.352;23.808;2024-03-08T00:36:23;94717.72;;;4.42;100.00
62978;BME280;49073;42.352;23.808;2024-03-08T00:39:25;94709.00;;;4.50;100.00
62978;BME280;49073;42.352;23.808;2024-03-08T00:42:25;94707.13;;;4.69;100.00
62978;BME280;49073;42.352;23.808;2024-03-08T00:45:26;94703.25;;;4.57;100.00
62978;BME280;49073;42.352;23.808;2024-03-08T00:48:27;94695.50;;;4.52;100.00
62978;BME280;49073;42.352;23.808;2024-03-08T00:51:28;94693.00;;;4.56;100.00
62978;BME280;49073;42.352;23.808;2024-03-08T00:54:28;94687.59;;;4.52;100.00
62978;BME280;49073;42.352;23.808;2024-03-08T00:57:30;94688.22;;;4.49;100.00
62978;BME280;49073;42.352;23.808;2024-03-08T01:00:31;94693.97;;;4.51;100.00
62978;BME280;49073;42.352;23.808;2024-03-08T01:03:31;94688.53;;;4.47;100.00
62978;BME280;49073;42.352;23.808;2024-03-08T01:06:32;94677.69;;;4.40;100.00
62978;BME280;49073;42.352;23.808;2024-03-08T01:09:33;94679.69;;;4.52;100.00
62978;BME280;49073;42.352;23.808;2024-03-08T01:12:33;94680.91;;;4.55;100.00
62978;BME280;49073;42.352;23.808;2024-03-08T01:15:35;94688.34;;;4.53;100.00
62978;BME280;49073;42.352;23.808;2024-03-08T01:18:35;94676.59;;;4.41;100.00
62978;BME280;49073;42.352;23.808;2024-03-08T01:21:36;94678.75;;;4.48;100.00
62978;BME280;49073;42.352;23.808;2024-03-08T01:24:36;94675.16;;;4.53;100.00
62978;BME280;49073;42.352;23.808;2024-03-08T01:27:37;94670.06;;;4.47;100.00
62978;BME280;49073;42.352;23.808;2024-03-08T01:30:37;94671.47;;;4.45;100.00
62978;BME280;49073;42.352;23.808;2024-03-08T01:33:38;94674.56;;;4.38;100.00
62978;BME280;49073;42.352;23.808;2024-03-08T01:36:40;94680.16;;;4.36;100.00
62978;BME280;49073;42.352;23.808;2024-03-08T01:39:41;94671.94;;;4.29;100.00
62978;BME280;49073;42.352;23.808;2024-03-08T01:42:41;94678.31;;;4.37;100.00
62978;BME280;49073;42.352;23.808;2024-03-08T01:45:43;94672.41;;;4.31;100.00
62978;BME280;49073;42.352;23.808;2024-03-08T01:48:44;94678.44;;;4.49;100.00
62978;BME280;49073;42.352;23.808;2024-03-08T01:51:45;94681.53;;;4.51;100.00
62978;BME280;49073;42.352;23.808;2024-03-08T01:54:46;94673.63;;;4.51;100.00
62978;BME280;49073;42.352;23.808;2024-03-08T01:57:47;94675.16;;;4.53;100.00
62978;BME280;49073;42.352;23.808;2024-03-08T02:00:48;94669.72;;;4.58;100.00
62978;BME280;49073;42.352;23.808;2024-03-08T02:03:49;94672.06;;;4.59;100.00
62978;BME280;49073;42.352;23.808;2024-03-08T02:06:51;94666.63;;;4.56;100.00
62978;BME280;49073;42.352;23.808;2024-03-08T02:09:52;94677.50;;;4.54;100.00
62978;BME280;49073;42.352;23.808;2024-03-08T02:12:53;94674.22;;;4.57;100.00
62978;BME280;49073;42.352;23.808;2024-03-08T02:15:59;94684.16;;;4.51;100.00
62978;BME280;49073;42.352;23.808;2024-03-08T02:18:59;94678.25;;;4.55;100.00
62978;BME280;49073;42.352;23.808;2024-03-08T02:22:00;94676.09;;;4.57;100.00
62978;BME280;49073;42.352;23.808;2024-03-08T02:25:05;94677.22;;;4.47;100.00
62978;BME280;49073;42.352;23.808;2024-03-08T02:28:06;94676.59;;;4.50;100.00
62978;BME280;49073;42.352;23.808;2024-03-08T02:31:08;94677.81;;;4.53;100.00
62978;BME280;49073;42.352;23.808;2024-03-08T02:34:09;94681.06;;;4.49;100.00
62978;BME280;49073;42.352;23.808;2024-03-08T02:37:09;94673.78;;;4.55;100.00
62978;BME280;49073;42.352;23.808;2024-03-08T02:40:10;94677.97;;;4.47;100.00
62978;BME280;49073;42.352;23.808;2024-03-08T02:43:13;94687.91;;;4.50;100.00
62978;BME280;49073;42.352;23.808;2024-03-08T02:46:17;94687.13;;;4.50;100.00
62978;BME280;49073;42.352;23.808;2024-03-08T02:49:18;94683.41;;;4.51;100.00
62978;BME280;49073;42.352;23.808;2024-03-08T02:52:18;94684.03;;;4.48;100.00
62978;BME280;49073;42.352;23.808;2024-03-08T02:55:21;94685.88;;;4.56;100.00
62978;BME280;49073;42.352;23.808;2024-03-08T02:58:22;94683.41;;;4.51;100.00
62978;BME280;49073;42.352;23.808;2024-03-08T03:01:22;94687.44;;;4.57;100.00
62978;BME280;49073;42.352;23.808;2024-03-08T03:04:23;94689.59;;;4.55;100.00
62978;BME280;49073;42.352;23.808;2024-03-08T03:07:23;94686.97;;;4.55;100.00
62978;BME280;49073;42.352;23.808;2024-03-08T03:10:24;94694.09;;;4.72;100.00
62978;BME280;49073;42.352;23.808;2024-03-08T03:13:25;94695.59;;;4.82;100.00
62978;BME280;49073;42.352;23.808;2024-03-08T03:16:26;94693.28;;;4.72;100.00
62978;BME280;49073;42.352;23.808;2024-03-08T03:19:26;94694.53;;;4.74;100.00
62978;BME280;49073;42.352;23.808;2024-03-08T03:22:28;94696.84;;;4.85;100.00
62978;BME280;49073;42.352;23.808;2024-03-08T03:25:30;94699.66;;;4.71;100.00
62978;BME280;49073;42.352;23.808;2024-03-08T03:28:35;94702.47;;;4.57;100.00
62978;BME280;49073;42.352;23.808;2024-03-08T03:31:37;94710.09;;;4.49;100.00
62978;BME280;49073;42.352;23.808;2024-03-08T03:34:38;94704.66;;;4.55;100.00
62978;BME280;49073;42.352;23.808;2024-03-08T03:37:39;94705.44;;;4.46;100.00
62978;BME280;49073;42.352;23.808;2024-03-08T03:40:40;94706.19;;;4.56;100.00
62978;BME280;49073;42.352;23.808;2024-03-08T03:43:43;94707.13;;;4.60;100.00
62978;BME280;49073;42.352;23.808;2024-03-08T03:46:44;94704.34;;;4.47;100.00
62978;BME280;49073;42.352;23.808;2024-03-08T03:49:44;94710.56;;;4.51;100.00
62978;BME280;49073;42.352;23.808;2024-03-08T03:52:46;94707.00;;;4.56;100.00
62978;BME280;49073;42.352;23.808;2024-03-08T03:55:47;94705.59;;;4.50;100.00
62978;BME280;49073;42.352;23.808;2024-03-08T03:58:47;94708.09;;;4.46;100.00
62978;BME280;49073;42.352;23.808;2024-03-08T04:01:48;94713.53;;;4.50;100.00
62978;BME280;49073;42.352;23.808;2024-03-08T04:04:49;94713.81;;;4.48;100.00
62978;BME280;49073;42.352;23.808;2024-03-08T04:07:50;94718.81;;;4.50;100.00
62978;BME280;49073;42.352;23.808;2024-03-08T04:10:51;94711.06;;;4.45;100.00
62978;BME280;49073;42.352;23.808;2024-03-08T04:13:51;94716.47;;;4.48;100.00
62978;BME280;49073;42.352;23.808;2024-03-08T04:16:52;94719.88;;;4.49;100.00
62978;BME280;49073;42.352;23.808;2024-03-08T04:19:53;94713.81;;;4.40;100.00
62978;BME280;49073;42.352;23.808;2024-03-08T04:22:54;94721.28;;;4.37;100.00
62978;BME280;49073;42.352;23.808;2024-03-08T04:25:55;94722.19;;;4.50;100.00
62978;BME280;49073;42.352;23.808;2024-03-08T04:28:55;94720.47;;;4.55;100.00
62978;BME280;49073;42.352;23.808;2024-03-08T04:31:55;94725.75;;;4.55;100.00
62978;BME280;49073;42.352;23.808;2024-03-08T04:34:56;94729.97;;;4.38;100.00
62978;BME280;49073;42.352;23.808;2024-03-08T04:37:57;94735.09;;;4.52;100.00
62978;BME280;49073;42.352;23.808;2024-03-08T04:40:58;94737.91;;;4.47;100.00
62978;BME280;49073;42.352;23.808;2024-03-08T04:43:59;94738.19;;;4.36;100.00
62978;BME280;49073;42.352;23.808;2024-03-08T04:47:00;94742.84;;;4.48;100.00
62978;BME280;49073;42.352;23.808;2024-03-08T04:50:00;94747.50;;;4.60;100.00
62978;BME280;49073;42.352;23.808;2024-03-08T04:53:01;94744.69;;;4.57;100.00
62978;BME280;49073;42.352;23.808;2024-03-08T04:56:02;94744.41;;;4.58;100.00
62978;BME280;49073;42.352;23.808;2024-03-08T04:59:06;94750.63;;;4.36;100.00
62978;BME280;49073;42.352;23.808;2024-03-08T05:02:08;94750.31;;;4.55;100.00
62978;BME280;49073;42.352;23.808;2024-03-08T05:05:08;94750.44;;;4.32;100.00
62978;BME280;49073;42.352;23.808;2024-03-08T05:08:12;94758.38;;;4.24;100.00
62978;BME280;49073;42.352;23.808;2024-03-08T05:11:13;94747.66;;;4.20;100.00
62978;BME280;49073;42.352;23.808;2024-03-08T05:14:14;94759.16;;;4.33;100.00
62978;BME280;49073;42.352;23.808;2024-03-08T05:17:20;94761.00;;;4.32;100.00
62978;BME280;49073;42.352;23.808;2024-03-08T05:20:20;94759.91;;;4.33;100.00
62978;BME280;49073;42.352;23.808;2024-03-08T05:23:22;94759.78;;;4.30;100.00
62978;BME280;49073;42.352;23.808;2024-03-08T05:26:22;94769.84;;;4.36;100.00
62978;BME280;49073;42.352;23.808;2024-03-08T05:29:23;94783.03;;;4.36;100.00
62978;BME280;49073;42.352;23.808;2024-03-08T05:32:23;94783.50;;;4.39;100.00
62978;BME280;49073;42.352;23.808;2024-03-08T05:35:25;94781.34;;;4.41;100.00
62978;BME280;49073;42.352;23.808;2024-03-08T05:38:25;94789.59;;;4.48;100.00
62978;BME280;49073;42.352;23.808;2024-03-08T05:41:26;94790.50;;;4.34;100.00
62978;BME280;49073;42.352;23.808;2024-03-08T05:44:27;94794.53;;;4.32;100.00
62978;BME280;49073;42.352;23.808;2024-03-08T05:47:28;94795.94;;;4.38;100.00
62978;BME280;49073;42.352;23.808;2024-03-08T05:50:29;94802.75;;;4.39;100.00
62978;BME280;49073;42.352;23.808;2024-03-08T05:53:29;94797.34;;;4.44;100.00
62978;BME280;49073;42.352;23.808;2024-03-08T05:56:34;94810.22;;;4.46;100.00
62978;BME280;49073;42.352;23.808;2024-03-08T05:59:34;94807.72;;;4.49;100.00
62978;BME280;49073;42.352;23.808;2024-03-08T06:02:35;94805.41;;;4.57;100.00
62978;BME280;49073;42.352;23.808;2024-03-08T06:05:41;94810.22;;;4.55;100.00
62978;BME280;49073;42.352;23.808;2024-03-08T06:08:42;94812.69;;;4.60;100.00
62978;BME280;49073;42.352;23.808;2024-03-08T06:11:43;94815.78;;;4.62;100.00
62978;BME280;49073;42.352;23.808;2024-03-08T06:14:45;94819.69;;;4.56;100.00
62978;BME280;49073;42.352;23.808;2024-03-08T06:17:46;94818.44;;;4.71;100.00
62978;BME280;49073;42.352;23.808;2024-03-08T06:20:46;94824.31;;;4.85;100.00
62978;BME280;49073;42.352;23.808;2024-03-08T06:23:47;94827.28;;;4.92;100.00
62978;BME280;49073;42.352;23.808;2024-03-08T06:26:47;94826.34;;;4.97;100.00
62978;BME280;49073;42.352;23.808;2024-03-08T06:29:49;94818.41;;;4.97;100.00
62978;BME280;49073;42.352;23.808;2024-03-08T06:32:49;94832.38;;;4.98;100.00
62978;BME280;49073;42.352;23.808;2024-03-08T06:35:50;94831.00;;;5.00;100.00
62978;BME280;49073;42.352;23.808;2024-03-08T06:38:50;94833.81;;;5.04;100.00
62978;BME280;49073;42.352;23.808;2024-03-08T06:41:51;94828.66;;;5.07;100.00
62978;BME280;49073;42.352;23.808;2024-03-08T06:44:51;94830.03;;;5.14;100.00
62978;BME280;49073;42.352;23.808;2024-03-08T06:47:56;94831.59;;;5.15;100.00
62978;BME280;49073;42.352;23.808;2024-03-08T06:50:56;94832.69;;;5.14;100.00
62978;BME280;49073;42.352;23.808;2024-03-08T06:53:57;94828.81;;;5.02;100.00
62978;BME280;49073;42.352;23.808;2024-03-08T06:56:57;94837.19;;;5.13;100.00
62978;BME280;49073;42.352;23.808;2024-03-08T06:59:58;94835.81;;;5.07;100.00
62978;BME280;49073;42.352;23.808;2024-03-08T07:02:59;94845.13;;;5.13;98.58
62978;BME280;49073;42.352;23.808;2024-03-08T07:06:03;94845.09;;;5.22;98.20
62978;BME280;49073;42.352;23.808;2024-03-08T07:09:07;94845.59;;;5.15;96.56
62978;BME280;49073;42.352;23.808;2024-03-08T07:12:08;94854.47;;;4.84;96.30
62978;BME280;49073;42.352;23.808;2024-03-08T07:15:08;94855.25;;;4.76;97.49
62978;BME280;49073;42.352;23.808;2024-03-08T07:18:13;94843.13;;;4.84;96.89
62978;BME280;49073;42.352;23.808;2024-03-08T07:21:15;94847.63;;;4.92;97.29
62978;BME280;49073;42.352;23.808;2024-03-08T07:24:16;94845.00;;;4.83;94.08
62978;BME280;49073;42.352;23.808;2024-03-08T07:27:35;94848.25;;;4.89;93.96
62978;BME280;49073;42.352;23.808;2024-03-08T07:30:37;94856.47;;;4.96;92.87
62978;BME280;49073;42.352;23.808;2024-03-08T07:33:44;94852.59;;;5.02;92.81
62978;BME280;49073;42.352;23.808;2024-03-08T07:36:44;94847.13;;;4.99;91.13
62978;BME280;49073;42.352;23.808;2024-03-08T07:39:45;94849.63;;;5.13;92.57
62978;BME280;49073;42.352;23.808;2024-03-08T07:42:46;94849.78;;;5.16;92.76
62978;BME280;49073;42.352;23.808;2024-03-08T07:45:46;94852.72;;;5.15;91.27
62978;BME280;49073;42.352;23.808;2024-03-08T07:48:47;94855.53;;;5.09;89.61
62978;BME280;49073;42.352;23.808;2024-03-08T07:51:48;94859.25;;;5.08;90.90
62978;BME280;49073;42.352;23.808;2024-03-08T07:54:49;94857.25;;;4.88;89.11
62978;BME280;49073;42.352;23.808;2024-03-08T07:57:50;94860.53;;;4.85;89.73
62978;BME280;49073;42.352;23.808;2024-03-08T08:00:51;94856.03;;;4.76;89.24
62978;BME280;49073;42.352;23.808;2024-03-08T08:03:51;94858.34;;;4.95;90.59
62978;BME280;49073;42.352;23.808;2024-03-08T08:06:52;94858.78;;;5.06;91.04
62978;BME280;49073;42.352;23.808;2024-03-08T08:09:55;94861.75;;;4.96;91.48
62978;BME280;49073;42.352;23.808;2024-03-08T08:12:55;94864.88;;;5.07;91.48
62978;BME280;49073;42.352;23.808;2024-03-08T08:15:57;94858.63;;;5.12;91.06
62978;BME280;49073;42.352;23.808;2024-03-08T08:18:58;94865.16;;;5.14;90.91
62978;BME280;49073;42.352;23.808;2024-03-08T08:22:01;94861.44;;;5.06;89.88
62978;BME280;49073;42.352;23.808;2024-03-08T08:25:02;94866.09;;;5.09;91.79
62978;BME280;49073;42.352;23.808;2024-03-08T08:28:03;94857.53;;;5.13;90.24
62978;BME280;49073;42.352;23.808;2024-03-08T08:31:04;94855.53;;;5.09;88.31
62978;BME280;49073;42.352;23.808;2024-03-08T08:34:04;94862.03;;;5.21;88.89
62978;BME280;49073;42.352;23.808;2024-03-08T08:37:06;94850.06;;;5.32;90.03
62978;BME280;49073;42.352;23.808;2024-03-08T08:40:10;94862.31;;;5.37;86.89
62978;BME280;49073;42.352;23.808;2024-03-08T08:43:14;94854.84;;;5.48;86.02
62978;BME280;49073;42.352;23.808;2024-03-08T08:46:18;94864.78;;;5.51;84.71
62978;BME280;49073;42.352;23.808;2024-03-08T08:49:19;94863.97;;;5.59;84.49
62978;BME280;49073;42.352;23.808;2024-03-08T08:52:20;94859.72;;;5.76;85.52
62978;BME280;49073;42.352;23.808;2024-03-08T08:55:21;94864.53;;;5.82;85.51
62978;BME280;49073;42.352;23.808;2024-03-08T08:58:25;94857.97;;;5.89;84.45
62978;BME280;49073;42.352;23.808;2024-03-08T09:01:43;94861.66;;;5.96;84.21
62978;BME280;49073;42.352;23.808;2024-03-08T09:04:47;94863.44;;;5.83;83.62
62978;BME280;49073;42.352;23.808;2024-03-08T09:07:48;94857.81;;;5.85;82.42
62978;BME280;49073;42.352;23.808;2024-03-08T09:10:50;94859.31;;;6.04;83.49
62978;BME280;49073;42.352;23.808;2024-03-08T09:13:51;94867.50;;;6.20;82.73
62978;BME280;49073;42.352;23.808;2024-03-08T09:16:52;94857.91;;;6.06;81.05
62978;BME280;49073;42.352;23.808;2024-03-08T09:19:52;94857.44;;;6.04;79.74
62978;BME280;49073;42.352;23.808;2024-03-08T09:22:54;94858.09;;;5.92;80.44
62978;BME280;49073;42.352;23.808;2024-03-08T09:25:55;94856.22;;;6.02;79.45
62978;BME280;49073;42.352;23.808;2024-03-08T09:28:55;94862.53;;;6.09;80.02
62978;BME280;49073;42.352;23.808;2024-03-08T09:31:56;94852.81;;;5.92;78.24
62978;BME280;49073;42.352;23.808;2024-03-08T09:34:56;94866.63;;;5.98;80.31
62978;BME280;49073;42.352;23.808;2024-03-08T09:37:57;94858.88;;;5.93;78.81
62978;BME280;49073;42.352;23.808;2024-03-08T09:40:57;94868.34;;;6.03;79.17
62978;BME280;49073;42.352;23.808;2024-03-08T09:43:58;94862.28;;;6.02;80.37
62978;BME280;49073;42.352;23.808;2024-03-08T09:47:00;94865.34;;;6.13;80.91
62978;BME280;49073;42.352;23.808;2024-03-08T09:50:02;94862.31;;;6.23;79.15
62978;BME280;49073;42.352;23.808;2024-03-08T09:53:03;94861.25;;;6.16;76.97
62978;BME280;49073;42.352;23.808;2024-03-08T09:56:04;94856.38;;;6.26;77.82
62978;BME280;49073;42.352;23.808;2024-03-08T09:59:04;94855.75;;;6.30;77.69
62978;BME280;49073;42.352;23.808;2024-03-08T10:02:23;94857.38;;;6.43;76.88
62978;BME280;49073;42.352;23.808;2024-03-08T10:05:24;94851.78;;;6.45;75.36
62978;BME280;49073;42.352;23.808;2024-03-08T10:08:25;94848.81;;;6.67;78.31
62978;BME280;49073;42.352;23.808;2024-03-08T10:11:26;94845.38;;;6.88;76.49
62978;BME280;49073;42.352;23.808;2024-03-08T10:14:27;94861.06;;;6.93;74.29
62978;BME280;49073;42.352;23.808;2024-03-08T10:17:28;94852.53;;;6.88;73.03
62978;BME280;49073;42.352;23.808;2024-03-08T10:20:33;94849.03;;;6.96;76.18
62978;BME280;49073;42.352;23.808;2024-03-08T10:23:34;94854.41;;;7.08;75.70
62978;BME280;49073;42.352;23.808;2024-03-08T10:26:36;94841.84;;;7.18;76.00
62978;BME280;49073;42.352;23.808;2024-03-08T10:29:37;94852.72;;;7.04;74.79
62978;BME280;49073;42.352;23.808;2024-03-08T10:32:43;94842.84;;;6.92;74.79
62978;BME280;49073;42.352;23.808;2024-03-08T10:35:44;94839.53;;;6.95;76.13
62978;BME280;49073;42.352;23.808;2024-03-08T10:38:45;94837.03;;;6.98;75.82
62978;BME280;49073;42.352;23.808;2024-03-08T10:41:52;94839.69;;;6.98;75.67
62978;BME280;49073;42.352;23.808;2024-03-08T10:45:14;94834.44;;;7.23;74.72
62978;BME280;49073;42.352;23.808;2024-03-08T10:48:28;94826.34;;;7.41;74.16
62978;BME280;49073;42.352;23.808;2024-03-08T10:51:32;94832.97;;;7.47;74.42
62978;BME280;49073;42.352;23.808;2024-03-08T10:54:34;94834.06;;;7.46;74.19
62978;BME280;49073;42.352;23.808;2024-03-08T10:57:38;94837.03;;;7.45;73.55
62978;BME280;49073;42.352;23.808;2024-03-08T11:00:39;94828.19;;;7.28;73.21
62978;BME280;49073;42.352;23.808;2024-03-08T11:06:46;94828.34;;;7.10;73.36
62978;BME280;49073;42.352;23.808;2024-03-08T11:09:50;94819.38;;;7.03;73.31
62978;BME280;49073;42.352;23.808;2024-03-08T11:12:52;94818.00;;;7.18;72.87
62978;BME280;49073;42.352;23.808;2024-03-08T11:15:53;94817.50;;;7.37;73.57
62978;BME280;49073;42.352;23.808;2024-03-08T11:18:55;94820.69;;;7.42;72.32
62978;BME280;49073;42.352;23.808;2024-03-08T11:22:02;94818.84;;;7.80;71.35
62978;BME280;49073;42.352;23.808;2024-03-08T11:25:04;94810.31;;;8.12;73.61
62978;BME280;49073;42.352;23.808;2024-03-08T11:28:20;94817.63;;;8.03;69.85
62978;BME280;49073;42.352;23.808;2024-03-08T11:31:23;94810.56;;;7.94;68.55
62978;BME280;49073;42.352;23.808;2024-03-08T11:34:26;94800.28;;;7.93;69.64
62978;BME280;49073;42.352;23.808;2024-03-08T11:37:28;94806.16;;;7.98;69.31
62978;BME280;49073;42.352;23.808;2024-03-08T11:40:30;94804.59;;;7.97;68.26
62978;BME280;49073;42.352;23.808;2024-03-08T11:43:33;94805.28;;;7.69;67.72
62978;BME280;49073;42.352;23.808;2024-03-08T11:46:36;94792.56;;;8.00;69.60
62978;BME280;49073;42.352;23.808;2024-03-08T11:49:37;94794.84;;;8.01;67.47
62978;BME280;49073;42.352;23.808;2024-03-08T11:52:40;94798.34;;;8.55;66.20
62978;BME280;49073;42.352;23.808;2024-03-08T11:55:44;94789.59;;;8.55;65.40
62978;BME280;49073;42.352;23.808;2024-03-08T11:58:53;94785.78;;;8.68;64.58
62978;BME280;49073;42.352;23.808;2024-03-08T12:02:06;94780.47;;;8.97;65.35
62978;BME280;49073;42.352;23.808;2024-03-08T12:05:06;94767.28;;;9.16;62.70
62978;BME280;49073;42.352;23.808;2024-03-08T12:08:09;94774.59;;;9.20;61.52
62978;BME280;49073;42.352;23.808;2024-03-08T12:11:13;94776.84;;;9.34;61.16
62978;BME280;49073;42.352;23.808;2024-03-08T12:14:15;94772.44;;;9.89;60.95
62978;BME280;49073;42.352;23.808;2024-03-08T12:17:16;94773.16;;;9.54;62.47
62978;BME280;49073;42.352;23.808;2024-03-08T12:20:17;94767.75;;;9.35;63.64
62978;BME280;49073;42.352;23.808;2024-03-08T12:23:18;94769.97;;;9.32;64.83
62978;BME280;49073;42.352;23.808;2024-03-08T12:26:27;94765.34;;;9.61;63.07
62978;BME280;49073;42.352;23.808;2024-03-08T12:29:28;94766.22;;;10.01;67.04
62978;BME280;49073;42.352;23.808;2024-03-08T12:32:30;94759.56;;;10.27;63.01
62978;BME280;49073;42.352;23.808;2024-03-08T12:35:31;94761.13;;;10.12;62.32
62978;BME280;49073;42.352;23.808;2024-03-08T12:38:33;94755.47;;;9.78;64.64
62978;BME280;49073;42.352;23.808;2024-03-08T12:41:40;94759.84;;;9.38;63.49
62978;BME280;49073;42.352;23.808;2024-03-08T12:44:41;94753.03;;;8.93;66.37
62978;BME280;49073;42.352;23.808;2024-03-08T12:47:43;94755.34;;;8.66;67.61
62978;BME280;49073;42.352;23.808;2024-03-08T12:50:44;94749.97;;;8.50;67.69
62978;BME280;49073;42.352;23.808;2024-03-08T12:53:47;94750.53;;;8.43;68.61
62978;BME280;49073;42.352;23.808;2024-03-08T12:56:48;94752.63;;;8.50;68.44
62978;BME280;49073;42.352;23.808;2024-03-08T12:59:50;94758.75;;;8.38;68.03
62978;BME280;49073;42.352;23.808;2024-03-08T13:02:51;94750.00;;;8.37;69.02
62978;BME280;49073;42.352;23.808;2024-03-08T13:05:51;94750.97;;;8.57;67.54
62978;BME280;49073;42.352;23.808;2024-03-08T13:08:52;94758.44;;;8.68;67.59
62978;BME280;49073;42.352;23.808;2024-03-08T13:11:53;94762.34;;;8.45;67.19
62978;BME280;49073;42.352;23.808;2024-03-08T13:14:55;94752.75;;;8.41;67.07
62978;BME280;49073;42.352;23.808;2024-03-08T13:17:57;94749.88;;;8.46;67.57
62978;BME280;49073;42.352;23.808;2024-03-08T13:21:00;94751.31;;;8.84;67.29
62978;BME280;49073;42.352;23.808;2024-03-08T13:24:05;94748.72;;;8.88;66.80
62978;BME280;49073;42.352;23.808;2024-03-08T13:27:07;94749.34;;;8.69;66.01
62978;BME280;49073;42.352;23.808;2024-03-08T13:30:19;94744.63;;;8.91;65.01
62978;BME280;49073;42.352;23.808;2024-03-08T13:33:24;94746.69;;;8.69;65.03
62978;BME280;49073;42.352;23.808;2024-03-08T13:36:24;94761.38;;;8.50;64.22
62978;BME280;49073;42.352;23.808;2024-03-08T13:39:29;94751.66;;;8.42;67.88
62978;BME280;49073;42.352;23.808;2024-03-08T13:42:31;94752.69;;;8.25;66.71
62978;BME280;49073;42.352;23.808;2024-03-08T13:45:32;94754.53;;;8.49;67.27
62978;BME280;49073;42.352;23.808;2024-03-08T13:48:34;94755.06;;;8.42;64.57
62978;BME280;49073;42.352;23.808;2024-03-08T13:51:35;94749.78;;;8.55;65.56
62978;BME280;49073;42.352;23.808;2024-03-08T13:54:36;94745.88;;;8.52;65.36
62978;BME280;49073;42.352;23.808;2024-03-08T13:57:37;94745.44;;;8.50;65.17
62978;BME280;49073;42.352;23.808;2024-03-08T14:00:37;94746.88;;;8.60;66.28
62978;BME280;49073;42.352;23.808;2024-03-08T14:03:39;94749.16;;;8.62;65.66
62978;BME280;49073;42.352;23.808;2024-03-08T14:06:43;94752.31;;;8.39;65.09
62978;BME280;49073;42.352;23.808;2024-03-08T14:09:45;94743.50;;;8.22;66.18
62978;BME280;49073;42.352;23.808;2024-03-08T14:12:48;94741.41;;;8.28;66.67
62978;BME280;49073;42.352;23.808;2024-03-08T14:15:52;94750.97;;;8.45;65.84
62978;BME280;49073;42.352;23.808;2024-03-08T14:18:53;94747.19;;;8.58;65.33
62978;BME280;49073;42.352;23.808;2024-03-08T14:21:53;94744.78;;;8.82;64.73
62978;BME280;49073;42.352;23.808;2024-03-08T14:24:55;94738.88;;;8.88;63.24
62978;BME280;49073;42.352;23.808;2024-03-08T14:27:56;94747.03;;;8.96;63.45
62978;BME280;49073;42.352;23.808;2024-03-08T14:30:59;94745.81;;;8.93;63.63
62978;BME280;49073;42.352;23.808;2024-03-08T14:34:04;94737.34;;;8.59;62.39
62978;BME280;49073;42.352;23.808;2024-03-08T14:37:04;94748.41;;;8.49;64.94
62978;BME280;49073;42.352;23.808;2024-03-08T14:40:09;94746.09;;;8.47;63.99
62978;BME280;49073;42.352;23.808;2024-03-08T14:43:10;94751.06;;;8.49;64.25
62978;BME280;49073;42.352;23.808;2024-03-08T14:46:11;94748.75;;;8.47;63.51
62978;BME280;49073;42.352;23.808;2024-03-08T14:49:17;94749.09;;;8.45;63.72
62978;BME280;49073;42.352;23.808;2024-03-08T14:52:19;94752.56;;;8.21;66.47
62978;BME280;49073;42.352;23.808;2024-03-08T14:55:30;94753.63;;;7.92;76.40
62978;BME280;49073;42.352;23.808;2024-03-08T14:58:31;94750.00;;;7.71;81.23
62978;BME280;49073;42.352;23.808;2024-03-08T15:01:32;94756.53;;;7.49;81.27
62978;BME280;49073;42.352;23.808;2024-03-08T15:04:36;94757.19;;;7.46;83.63
62978;BME280;49073;42.352;23.808;2024-03-08T15:07:40;94763.22;;;7.22;85.68
62978;BME280;49073;42.352;23.808;2024-03-08T15:10:40;94762.78;;;7.07;87.28
62978;BME280;49073;42.352;23.808;2024-03-08T15:13:41;94766.38;;;7.03;87.88
62978;BME280;49073;42.352;23.808;2024-03-08T15:16:42;94765.59;;;7.02;89.71
62978;BME280;49073;42.352;23.808;2024-03-08T15:19:44;94761.16;;;6.94;90.09
62978;BME280;49073;42.352;23.808;2024-03-08T15:22:47;94768.00;;;6.95;90.48
62978;BME280;49073;42.352;23.808;2024-03-08T15:25:48;94770.19;;;6.80;90.88
62978;BME280;49073;42.352;23.808;2024-03-08T15:28:51;94769.75;;;6.78;90.82
62978;BME280;49073;42.352;23.808;2024-03-08T15:31:54;94775.44;;;6.68;91.72
62978;BME280;49073;42.352;23.808;2024-03-08T15:34:55;94780.69;;;6.55;91.82
62978;BME280;49073;42.352;23.808;2024-03-08T15:37:57;94785.53;;;6.53;92.41
62978;BME280;49073;42.352;23.808;2024-03-08T15:40:58;94782.81;;;6.41;92.96
62978;BME280;49073;42.352;23.808;2024-03-08T15:43:59;94789.97;;;6.19;93.56
62978;BME280;49073;42.352;23.808;2024-03-08T15:47:00;94795.91;;;6.16;95.28
62978;BME280;49073;42.352;23.808;2024-03-08T15:50:01;94792.84;;;6.05;95.45
62978;BME280;49073;42.352;23.808;2024-03-08T15:53:03;94794.28;;;6.03;96.95
62978;BME280;49073;42.352;23.808;2024-03-08T15:56:05;94802.56;;;5.92;97.68
62978;BME280;49073;42.352;23.808;2024-03-08T15:59:06;94799.47;;;5.90;98.35